createdAt,value
2022-08-19T00:00:52.755Z,21.3
2022-08-19T00:02:52.889Z,21.3
2022-08-19T00:04:52.830Z,21.3
2022-08-19T00:06:52.765Z,21.3
2022-08-19T00:08:52.769Z,21.3
2022-08-19T00:10:52.769Z,21.3
2022-08-19T00:12:52.868Z,21.3
2022-08-19T00:14:52.785Z,21.3
2022-08-19T00:16:52.787Z,21.3
2022-08-19T00:18:52.789Z,21.3
2022-08-19T00:20:52.793Z,21.2
2022-08-19T00:22:53.007Z,21.2
2022-08-19T00:24:52.807Z,21.2
2022-08-19T00:26:52.808Z,21.2
2022-08-19T00:28:52.817Z,21.2
2022-08-19T00:30:52.819Z,21.2
2022-08-19T00:32:52.992Z,21.2
2022-08-19T00:34:52.830Z,21.2
2022-08-19T00:36:52.841Z,21.2
2022-08-19T00:38:52.843Z,21.2
2022-08-19T00:40:52.846Z,21.2
2022-08-19T00:42:53.007Z,21.2
2022-08-19T00:44:52.856Z,21.1
2022-08-19T00:46:55.681Z,21
2022-08-19T00:48:52.878Z,20.9
2022-08-19T00:50:52.873Z,20.9
2022-08-19T00:52:53.034Z,20.8
2022-08-19T00:54:52.977Z,20.8
2022-08-19T00:56:52.899Z,20.7
2022-08-19T00:58:52.905Z,20.6
2022-08-19T01:00:52.908Z,20.6
2022-08-19T01:02:53.063Z,20.6
2022-08-19T01:04:52.918Z,20.5
2022-08-19T01:06:52.922Z,20.5
2022-08-19T01:08:52.933Z,20.4
2022-08-19T01:10:52.930Z,20.4
2022-08-19T01:12:53.041Z,20.4
2022-08-19T01:14:52.938Z,20.4
2022-08-19T01:16:52.944Z,20.4
2022-08-19T01:18:52.948Z,20.3
2022-08-19T01:20:52.956Z,20.3
2022-08-19T01:22:53.128Z,20.3
2022-08-19T01:24:52.965Z,20.3
2022-08-19T01:26:52.977Z,20.3
2022-08-19T01:28:52.981Z,20.3
2022-08-19T01:30:52.978Z,20.3
2022-08-19T01:32:53.101Z,20.2
2022-08-19T01:34:52.995Z,20.2
2022-08-19T01:36:52.997Z,20.2
2022-08-19T01:38:53.007Z,20.2
2022-08-19T01:40:53.010Z,20.1
2022-08-19T01:42:53.158Z,20.1
2022-08-19T01:44:53.020Z,20.1
2022-08-19T01:46:53.029Z,20.1
2022-08-19T01:48:53.034Z,20.1
2022-08-19T01:50:53.044Z,20.1
2022-08-19T01:52:59.145Z,20.1
2022-08-19T01:54:53.042Z,20.1
2022-08-19T01:56:53.050Z,20.2
2022-08-19T01:58:53.058Z,20.2
2022-08-19T02:00:53.068Z,20.2
2022-08-19T02:02:53.223Z,20.3
2022-08-19T02:04:53.068Z,20.3
2022-08-19T02:06:53.076Z,20.3
2022-08-19T02:08:53.075Z,20.3
2022-08-19T02:10:53.192Z,20.3
2022-08-19T02:12:53.165Z,20.3
2022-08-19T02:14:53.216Z,20.3
2022-08-19T02:16:53.091Z,20.3
2022-08-19T02:18:53.100Z,20.3
2022-08-19T02:20:53.095Z,20.3
2022-08-19T02:22:53.222Z,20.4
2022-08-19T02:24:53.109Z,20.4
2022-08-19T02:26:53.105Z,20.4
2022-08-19T02:28:53.113Z,20.4
2022-08-19T02:30:53.126Z,20.4
2022-08-19T02:32:53.118Z,20.4
2022-08-19T02:34:53.120Z,20.4
2022-08-19T02:36:53.125Z,20.4
2022-08-19T02:38:54.664Z,20.4
2022-08-19T02:40:53.128Z,20.4
2022-08-19T02:42:53.263Z,20.4
2022-08-19T02:44:53.132Z,20.4
2022-08-19T02:46:53.136Z,20.4
2022-08-19T02:48:53.134Z,20.4
2022-08-19T02:50:53.505Z,20.4
2022-08-19T02:52:53.252Z,20.4
2022-08-19T02:54:53.133Z,20.4
2022-08-19T02:56:53.141Z,20.4
2022-08-19T02:58:53.143Z,20.4
2022-08-19T03:00:53.250Z,20.4
2022-08-19T03:02:53.319Z,20.4
2022-08-19T03:04:53.334Z,20.4
2022-08-19T03:06:53.143Z,20.4
2022-08-19T03:08:53.151Z,20.4
2022-08-19T03:10:53.154Z,20.4
2022-08-19T03:12:53.532Z,20.4
2022-08-19T03:14:53.168Z,20.4
2022-08-19T03:16:53.180Z,20.4
2022-08-19T03:18:53.175Z,20.4
2022-08-19T03:20:53.198Z,20.4
2022-08-19T03:22:53.344Z,20.4
2022-08-19T03:24:53.207Z,20.4
2022-08-19T03:26:53.220Z,20.4
2022-08-19T03:28:57.949Z,20.4
2022-08-19T03:30:53.240Z,20.4
2022-08-19T03:32:57.196Z,20.4
2022-08-19T03:34:53.244Z,20.4
2022-08-19T03:36:53.259Z,20.4
2022-08-19T03:38:56.263Z,20.4
2022-08-19T03:40:53.266Z,20.4
2022-08-19T03:42:53.277Z,20.4
2022-08-19T03:44:53.272Z,20.4
2022-08-19T03:46:53.296Z,20.4
2022-08-19T03:48:53.284Z,20.4
2022-08-19T03:50:53.295Z,20.4
2022-08-19T03:52:53.618Z,20.4
2022-08-19T03:54:53.308Z,20.4
2022-08-19T03:56:53.314Z,20.4
2022-08-19T03:58:53.330Z,20.4
2022-08-19T04:00:53.352Z,20.4
2022-08-19T04:02:56.589Z,20.4
2022-08-19T04:04:53.353Z,20.4
2022-08-19T04:06:53.356Z,20.4
2022-08-19T04:08:53.360Z,20.4
2022-08-19T04:10:53.373Z,20.4
2022-08-19T04:12:53.588Z,20.4
2022-08-19T04:14:53.389Z,20.4
2022-08-19T04:16:53.395Z,20.4
2022-08-19T04:18:53.406Z,20.5
2022-08-19T04:20:53.406Z,20.5
2022-08-19T04:22:53.547Z,20.4
2022-08-19T04:24:53.431Z,20.4
2022-08-19T04:26:53.431Z,20.4
2022-08-19T04:28:53.438Z,20.4
2022-08-19T04:30:53.469Z,20.4
2022-08-19T04:32:53.623Z,20.4
2022-08-19T04:35:01.076Z,20.4
2022-08-19T04:36:53.467Z,20.4
2022-08-19T04:38:53.474Z,20.4
2022-08-19T04:40:53.480Z,20.4
2022-08-19T04:42:53.571Z,20.4
2022-08-19T04:44:53.494Z,20.4
2022-08-19T04:46:53.499Z,20.4
2022-08-19T04:48:53.508Z,20.4
2022-08-19T04:50:53.523Z,20.4
2022-08-19T04:52:53.680Z,20.4
2022-08-19T04:54:53.538Z,20.4
2022-08-19T04:56:53.551Z,20.4
2022-08-19T04:58:53.556Z,20.3
2022-08-19T05:00:53.597Z,20.3
2022-08-19T05:02:53.793Z,20.3
2022-08-19T05:04:53.585Z,20.3
2022-08-19T05:06:53.594Z,20.3
2022-08-19T05:08:53.607Z,20.3
2022-08-19T05:10:53.613Z,20.3
2022-08-19T05:12:53.721Z,20.3
2022-08-19T05:14:53.627Z,20.3
2022-08-19T05:17:06.543Z,20.2
2022-08-19T05:18:53.636Z,20.2
2022-08-19T05:20:53.650Z,20.2
2022-08-19T05:22:53.969Z,20.2
2022-08-19T05:25:11.534Z,20.1
2022-08-19T05:26:53.667Z,20.1
2022-08-19T05:28:54.640Z,20.1
2022-08-19T05:30:53.665Z,20.1
2022-08-19T05:32:53.947Z,20.1
2022-08-19T05:34:53.685Z,20.1
2022-08-19T05:36:53.692Z,20.1
2022-08-19T05:38:53.705Z,20.1
2022-08-19T05:40:53.715Z,20.1
2022-08-19T05:42:55.285Z,20.1
2022-08-19T05:44:53.744Z,20.1
2022-08-19T05:46:53.751Z,20.1
2022-08-19T05:48:53.763Z,20.1
2022-08-19T05:50:53.769Z,20.1
2022-08-19T05:52:53.773Z,20
2022-08-19T05:54:53.804Z,20
2022-08-19T05:56:53.801Z,20
2022-08-19T05:58:53.803Z,20
2022-08-19T06:00:53.817Z,20
2022-08-19T06:02:54.018Z,20
2022-08-19T06:04:53.838Z,20
2022-08-19T06:06:53.847Z,20
2022-08-19T06:08:53.848Z,20
2022-08-19T06:10:53.856Z,20
2022-08-19T06:12:53.863Z,19.9
2022-08-19T06:14:55.949Z,19.9
2022-08-19T06:16:53.878Z,19.9
2022-08-19T06:18:53.889Z,19.9
2022-08-19T06:20:55.682Z,19.9
2022-08-19T06:22:53.898Z,19.9
2022-08-19T06:24:53.904Z,19.9
2022-08-19T06:26:55.764Z,19.9
2022-08-19T06:28:53.921Z,19.9
2022-08-19T06:30:53.932Z,19.9
2022-08-19T06:32:53.943Z,19.9
2022-08-19T06:34:53.957Z,19.9
2022-08-19T06:36:54.094Z,19.9
2022-08-19T06:38:53.976Z,19.9
2022-08-19T06:40:53.986Z,19.9
2022-08-19T06:42:54.617Z,19.9
2022-08-19T06:44:54.020Z,19.9
2022-08-19T06:46:54.978Z,19.9
2022-08-19T06:48:54.025Z,19.9
2022-08-19T06:50:54.038Z,19.9
2022-08-19T06:52:54.263Z,19.9
2022-08-19T06:54:56.213Z,19.9
2022-08-19T06:56:54.072Z,19.9
2022-08-19T06:58:54.092Z,19.9
2022-08-19T07:00:54.090Z,19.9
2022-08-19T07:02:58.651Z,19.9
2022-08-19T07:04:54.112Z,19.9
2022-08-19T07:06:55.223Z,20
2022-08-19T07:08:54.133Z,20
2022-08-19T07:10:54.129Z,20
2022-08-19T07:12:54.347Z,20
2022-08-19T07:14:54.147Z,20
2022-08-19T07:16:54.157Z,20
2022-08-19T07:18:54.157Z,20
2022-08-19T07:20:54.173Z,20.1
2022-08-19T07:22:54.292Z,20.1
2022-08-19T07:24:54.197Z,20.1
2022-08-19T07:26:54.209Z,20.1
2022-08-19T07:28:54.215Z,20.1
2022-08-19T07:30:54.230Z,20.1
2022-08-19T07:32:54.245Z,20.1
2022-08-19T07:34:54.254Z,20.1
2022-08-19T07:36:54.270Z,20.1
2022-08-19T07:38:54.274Z,20.1
2022-08-19T07:40:54.288Z,20.1
2022-08-19T07:42:54.295Z,20.1
2022-08-19T07:44:54.309Z,20.1
2022-08-19T07:46:54.337Z,20.1
2022-08-19T07:48:54.336Z,20.1
2022-08-19T07:50:54.351Z,20.1
2022-08-19T07:52:54.361Z,20.1
2022-08-19T07:54:54.369Z,20.2
2022-08-19T07:56:54.380Z,20.2
2022-08-19T07:58:57.430Z,20.2
2022-08-19T08:00:54.396Z,20.2
2022-08-19T08:02:55.582Z,20.2
2022-08-19T08:04:54.410Z,20.2
2022-08-19T08:06:54.402Z,20.2
2022-08-19T08:08:54.416Z,20.2
2022-08-19T08:10:54.751Z,20.2
2022-08-19T08:13:09.779Z,20.2
2022-08-19T08:14:55.839Z,20.3
2022-08-19T08:16:54.463Z,20.3
2022-08-19T08:18:54.476Z,20.3
2022-08-19T08:20:54.487Z,20.3
2022-08-19T08:22:54.607Z,20.3
2022-08-19T08:24:54.509Z,20.3
2022-08-19T08:26:57.117Z,20.3
2022-08-19T08:28:54.541Z,20.3
2022-08-19T08:30:54.547Z,20.3
2022-08-19T08:32:54.561Z,20.3
2022-08-19T08:34:54.577Z,20.3
2022-08-19T08:36:54.589Z,20.3
2022-08-19T08:40:54.619Z,20.3
2022-08-19T08:42:54.800Z,20.3
2022-08-19T08:46:54.652Z,20.3
2022-08-19T08:48:54.673Z,20.3
2022-08-19T08:50:54.677Z,20.3
2022-08-19T08:52:54.952Z,20.3
2022-08-19T08:54:55.575Z,20.3
2022-08-19T08:56:54.699Z,20.3
2022-08-19T08:58:54.959Z,20.3
2022-08-19T09:00:54.713Z,20.3
2022-08-19T09:02:54.723Z,20.4
2022-08-19T09:04:54.741Z,20.4
2022-08-19T09:06:54.749Z,20.4
2022-08-19T09:08:56.633Z,20.4
2022-08-19T09:10:55.126Z,20.4
2022-08-19T09:12:54.789Z,20.4
2022-08-19T09:14:54.804Z,20.4
2022-08-19T09:16:54.814Z,20.4
2022-08-19T09:18:54.831Z,20.4
2022-08-19T09:20:54.843Z,20.4
2022-08-19T09:22:54.858Z,20.4
2022-08-19T09:24:54.867Z,20.4
2022-08-19T09:26:54.879Z,20.4
2022-08-19T09:28:54.893Z,20.4
2022-08-19T09:30:54.910Z,20.4
2022-08-19T09:32:54.926Z,20.4
2022-08-19T09:34:54.937Z,20.4
2022-08-19T09:36:54.975Z,20.4
2022-08-19T09:38:54.968Z,20.4
2022-08-19T09:40:54.979Z,20.4
2022-08-19T09:42:54.992Z,20.4
2022-08-19T09:44:55.007Z,20.4
2022-08-19T09:46:55.023Z,20.4
2022-08-19T09:48:55.031Z,20.4
2022-08-19T09:50:55.036Z,20.4
2022-08-19T09:52:55.681Z,20.4
2022-08-19T09:54:55.048Z,20.4
2022-08-19T09:56:55.070Z,20.4
2022-08-19T09:58:55.083Z,20.4
2022-08-19T10:00:55.130Z,20.4
2022-08-19T10:02:55.106Z,20.4
2022-08-19T10:04:55.114Z,20.4
2022-08-19T10:06:55.414Z,20.4
2022-08-19T10:08:55.144Z,20.4
2022-08-19T10:10:55.162Z,20.4
2022-08-19T10:12:55.173Z,20.4
2022-08-19T10:14:55.183Z,20.4
2022-08-19T10:16:55.505Z,20.4
2022-08-19T10:18:58.867Z,20.4
2022-08-19T10:20:55.329Z,20.4
2022-08-19T10:22:55.241Z,20.4
2022-08-19T10:24:55.530Z,20.4
2022-08-19T10:26:56.099Z,20.4
2022-08-19T10:28:55.284Z,20.4
2022-08-19T10:30:55.298Z,20.4
2022-08-19T10:32:55.312Z,20.4
2022-08-19T10:34:57.138Z,20.5
2022-08-19T10:36:56.220Z,20.4
2022-08-19T10:38:56.922Z,20.5
2022-08-19T10:40:55.353Z,20.4
2022-08-19T10:42:55.349Z,20.5
2022-08-19T10:44:55.364Z,20.5
2022-08-19T10:46:55.363Z,20.5
2022-08-19T10:48:55.380Z,20.5
2022-08-19T10:50:55.386Z,20.5
2022-08-19T10:52:55.397Z,20.5
2022-08-19T10:54:55.401Z,20.5
2022-08-19T10:56:55.406Z,20.5
2022-08-19T10:58:55.421Z,20.5
2022-08-19T11:00:55.508Z,20.5
2022-08-19T11:02:55.437Z,20.5
2022-08-19T11:04:55.443Z,20.5
2022-08-19T11:06:55.453Z,20.5
2022-08-19T11:08:55.461Z,20.5
2022-08-19T11:10:55.460Z,20.5
2022-08-19T11:12:55.468Z,20.5
2022-08-19T11:14:55.481Z,20.5
2022-08-19T11:16:55.489Z,20.5
2022-08-19T11:18:55.495Z,20.5
2022-08-19T11:20:55.507Z,20.5
2022-08-19T11:22:55.516Z,20.5
2022-08-19T11:24:55.526Z,20.5
2022-08-19T11:26:55.533Z,20.5
2022-08-19T11:28:55.549Z,20.5
2022-08-19T11:30:55.546Z,20.5
2022-08-19T11:32:55.554Z,20.5
2022-08-19T11:34:55.554Z,20.5
2022-08-19T11:36:55.566Z,20.5
2022-08-19T11:38:55.579Z,20.5
2022-08-19T11:40:55.579Z,20.5
2022-08-19T11:42:55.585Z,20.5
2022-08-19T11:44:55.599Z,20.5
2022-08-19T11:46:55.624Z,20.5
2022-08-19T11:48:55.947Z,20.5
2022-08-19T11:50:55.622Z,20.5
2022-08-19T11:52:55.631Z,20.5
2022-08-19T11:54:55.640Z,20.5
2022-08-19T11:56:55.645Z,20.6
2022-08-19T11:58:55.657Z,20.6
2022-08-19T12:00:55.666Z,20.6
2022-08-19T12:02:55.680Z,20.6
2022-08-19T12:04:55.684Z,20.6
2022-08-19T12:06:55.718Z,20.6
2022-08-19T12:08:55.705Z,20.6
2022-08-19T12:10:55.708Z,20.6
2022-08-19T12:12:55.823Z,20.6
2022-08-19T12:14:55.728Z,20.6
2022-08-19T12:16:55.738Z,20.6
2022-08-19T12:18:55.749Z,20.6
2022-08-19T12:20:55.762Z,20.6
2022-08-19T12:22:55.765Z,20.6
2022-08-19T12:24:55.774Z,20.6
2022-08-19T12:26:55.764Z,20.6
2022-08-19T12:28:55.779Z,20.6
2022-08-19T12:30:55.785Z,20.6
2022-08-19T12:32:55.793Z,20.6
2022-08-19T12:34:55.802Z,20.6
2022-08-19T12:36:55.809Z,20.6
2022-08-19T12:38:55.814Z,20.6
2022-08-19T12:40:59.716Z,20.6
2022-08-19T12:42:55.837Z,20.6
2022-08-19T12:44:55.844Z,20.6
2022-08-19T12:46:55.859Z,20.6
2022-08-19T12:48:56.148Z,20.6
2022-08-19T12:50:55.879Z,20.6
2022-08-19T12:52:55.881Z,20.6
2022-08-19T12:54:55.894Z,20.6
2022-08-19T12:56:55.905Z,20.6
2022-08-19T12:58:55.912Z,20.6
2022-08-19T13:00:55.956Z,20.6
2022-08-19T13:02:55.930Z,20.6
2022-08-19T13:04:55.939Z,20.6
2022-08-19T13:06:55.953Z,20.6
2022-08-19T13:08:59.475Z,20.6
2022-08-19T13:10:55.972Z,20.6
2022-08-19T13:12:55.986Z,20.6
2022-08-19T13:14:55.992Z,20.6
2022-08-19T13:16:56.001Z,20.6
2022-08-19T13:18:55.999Z,20.6
2022-08-19T13:20:56.005Z,20.6
2022-08-19T13:22:56.019Z,20.6
2022-08-19T13:24:56.037Z,20.6
2022-08-19T13:26:56.031Z,20.6
2022-08-19T13:28:56.097Z,20.6
2022-08-19T13:30:56.070Z,20.6
2022-08-19T13:32:56.068Z,20.6
2022-08-19T13:34:56.083Z,20.6
2022-08-19T13:36:56.755Z,20.6
2022-08-19T13:38:56.104Z,20.6
2022-08-19T13:40:56.123Z,20.6
2022-08-19T13:42:56.142Z,20.6
2022-08-19T13:44:56.139Z,20.6
2022-08-19T13:46:56.156Z,20.6
2022-08-19T13:48:56.170Z,20.6
2022-08-19T13:50:56.177Z,20.6
2022-08-19T13:52:56.172Z,20.6
2022-08-19T13:54:56.167Z,20.6
2022-08-19T13:56:56.183Z,20.6
2022-08-19T13:58:57.377Z,20.6
2022-08-19T14:00:56.288Z,20.6
2022-08-19T14:02:56.189Z,20.6
2022-08-19T14:04:56.199Z,20.6
2022-08-19T14:06:56.199Z,20.6
2022-08-19T14:08:56.206Z,20.6
2022-08-19T14:10:56.224Z,20.6
2022-08-19T14:12:56.203Z,20.6
2022-08-19T14:14:56.214Z,20.6
2022-08-19T14:16:56.212Z,20.6
2022-08-19T14:18:56.235Z,20.6
2022-08-19T14:20:56.225Z,20.7
2022-08-19T14:22:56.228Z,20.7
2022-08-19T14:24:56.229Z,20.7
2022-08-19T14:26:56.365Z,20.7
2022-08-19T14:28:56.241Z,20.7
2022-08-19T14:30:56.670Z,20.7
2022-08-19T14:32:56.253Z,20.7
2022-08-19T14:34:56.258Z,20.7
2022-08-19T14:36:56.257Z,20.7
2022-08-19T14:38:56.267Z,20.7
2022-08-19T14:40:56.270Z,20.7
2022-08-19T14:42:56.267Z,20.7
2022-08-19T14:44:56.280Z,20.7
2022-08-19T14:46:56.527Z,20.7
2022-08-19T14:48:56.333Z,20.7
2022-08-19T14:50:56.520Z,20.7
2022-08-19T14:52:56.579Z,20.7
2022-08-19T14:54:56.295Z,20.7
2022-08-19T14:56:56.303Z,20.7
2022-08-19T14:58:56.388Z,20.7
2022-08-19T15:00:56.302Z,20.7
2022-08-19T15:02:56.460Z,20.7
2022-08-19T15:04:57.999Z,20.7
2022-08-19T15:06:56.316Z,20.7
2022-08-19T15:08:58.602Z,20.7
2022-08-19T15:10:56.345Z,20.7
2022-08-19T15:12:56.534Z,20.7
2022-08-19T15:14:56.360Z,20.8
2022-08-19T15:16:56.360Z,20.8
2022-08-19T15:18:56.351Z,20.7
2022-08-19T15:20:56.354Z,20.8
2022-08-19T15:22:56.358Z,20.8
2022-08-19T15:24:56.362Z,20.8
2022-08-19T15:26:56.370Z,20.7
2022-08-19T15:28:56.378Z,20.8
2022-08-19T15:30:56.381Z,20.8
2022-08-19T15:32:56.387Z,20.8
2022-08-19T15:34:56.400Z,20.8
2022-08-19T15:36:56.413Z,20.8
2022-08-19T15:38:56.401Z,20.8
2022-08-19T15:40:56.406Z,20.8
2022-08-19T15:42:56.419Z,20.8
2022-08-19T15:44:56.419Z,20.8
2022-08-19T15:46:56.423Z,20.8
2022-08-19T15:48:59.589Z,20.8
2022-08-19T15:50:56.437Z,20.8
2022-08-19T15:52:56.436Z,20.8
2022-08-19T15:54:56.436Z,20.8
2022-08-19T15:56:57.401Z,20.8
2022-08-19T15:58:56.450Z,20.8
2022-08-19T16:00:56.451Z,20.8
2022-08-19T16:02:56.459Z,20.8
2022-08-19T16:04:56.453Z,20.8
2022-08-19T16:06:56.480Z,20.8
2022-08-19T16:08:56.469Z,20.8
2022-08-19T16:10:56.461Z,20.8
2022-08-19T16:12:56.789Z,20.8
2022-08-19T16:14:56.475Z,20.8
2022-08-19T16:16:56.476Z,20.8
2022-08-19T16:18:56.481Z,20.8
2022-08-19T16:20:56.485Z,20.8
2022-08-19T16:22:56.510Z,20.8
2022-08-19T16:24:56.485Z,20.8
2022-08-19T16:26:56.508Z,20.8
2022-08-19T16:28:56.491Z,20.8
2022-08-19T16:30:56.500Z,20.8
2022-08-19T16:32:56.496Z,20.8
2022-08-19T16:34:56.522Z,20.8
2022-08-19T16:36:56.502Z,20.8
2022-08-19T16:38:56.507Z,20.8
2022-08-19T16:40:56.515Z,20.8
2022-08-19T16:42:56.526Z,20.8
2022-08-19T16:44:56.528Z,20.8
2022-08-19T16:46:58.574Z,20.8
2022-08-19T16:48:56.524Z,20.8
2022-08-19T16:50:56.517Z,20.8
2022-08-19T16:52:56.547Z,20.8
2022-08-19T16:54:56.569Z,20.8
2022-08-19T16:56:56.537Z,20.9
2022-08-19T16:58:56.535Z,20.8
2022-08-19T17:00:58.590Z,20.8
2022-08-19T17:02:56.589Z,20.8
2022-08-19T17:04:57.880Z,20.9
2022-08-19T17:06:56.544Z,20.8
2022-08-19T17:08:56.549Z,20.9
2022-08-19T17:11:16.862Z,20.9
2022-08-19T17:12:56.556Z,20.9
2022-08-19T17:14:56.559Z,20.9
2022-08-19T17:16:56.560Z,20.9
2022-08-19T17:18:56.566Z,20.9
2022-08-19T17:20:56.874Z,20.9
2022-08-19T17:22:56.582Z,20.9
2022-08-19T17:24:58.177Z,20.9
2022-08-19T17:26:56.578Z,20.9
2022-08-19T17:28:56.594Z,20.9
2022-08-19T17:30:56.594Z,20.9
2022-08-19T17:32:56.599Z,20.9
2022-08-19T17:34:56.613Z,20.9
2022-08-19T17:36:56.633Z,20.9
2022-08-19T17:38:56.629Z,20.9
2022-08-19T17:40:56.623Z,20.9
2022-08-19T17:42:56.654Z,20.9
2022-08-19T17:44:56.619Z,20.9
2022-08-19T17:46:56.643Z,20.9
2022-08-19T17:48:56.619Z,20.9
2022-08-19T17:50:56.632Z,20.9
2022-08-19T17:52:56.675Z,20.9
2022-08-19T17:54:56.663Z,20.9
2022-08-19T17:56:56.657Z,20.9
2022-08-19T17:58:57.993Z,20.9
2022-08-19T18:00:56.671Z,20.9
2022-08-19T18:02:56.659Z,20.9
2022-08-19T18:04:56.672Z,20.9
2022-08-19T18:06:56.683Z,20.9
2022-08-19T18:08:56.672Z,20.9
2022-08-19T18:10:56.673Z,20.9
2022-08-19T18:12:56.675Z,20.9
2022-08-19T18:14:56.682Z,20.9
2022-08-19T18:16:56.688Z,20.9
2022-08-19T18:18:56.705Z,20.9
2022-08-19T18:20:56.703Z,20.9
2022-08-19T18:22:56.703Z,20.9
2022-08-19T18:24:56.716Z,20.9
2022-08-19T18:26:56.714Z,20.9
2022-08-19T18:28:56.714Z,20.9
2022-08-19T18:30:56.725Z,20.9
2022-08-19T18:32:56.724Z,20.9
2022-08-19T18:34:56.731Z,20.9
2022-08-19T18:36:56.735Z,20.9
2022-08-19T18:38:56.741Z,20.9
2022-08-19T18:40:56.770Z,20.9
2022-08-19T18:42:56.753Z,20.9
2022-08-19T18:44:59.698Z,20.9
2022-08-19T18:46:57.396Z,20.9
2022-08-19T18:48:56.774Z,20.9
2022-08-19T18:50:56.816Z,20.9
2022-08-19T18:52:56.784Z,20.9
2022-08-19T18:54:56.793Z,20.9
2022-08-19T18:56:56.797Z,20.9
2022-08-19T18:58:56.827Z,20.9
2022-08-19T19:00:57.294Z,20.9
2022-08-19T19:02:56.815Z,20.9
2022-08-19T19:04:56.818Z,20.9
2022-08-19T19:06:56.821Z,20.9
2022-08-19T19:08:56.823Z,20.9
2022-08-19T19:10:56.829Z,20.9
2022-08-19T19:12:56.835Z,20.9
2022-08-19T19:14:56.840Z,20.9
2022-08-19T19:16:56.869Z,20.9
2022-08-19T19:18:56.857Z,20.9
2022-08-19T19:20:56.860Z,20.9
2022-08-19T19:22:58.196Z,20.9
2022-08-19T19:24:56.870Z,20.9
2022-08-19T19:26:56.879Z,20.9
2022-08-19T19:28:56.890Z,20.9
2022-08-19T19:30:56.889Z,20.9
2022-08-19T19:32:56.896Z,20.9
2022-08-19T19:34:56.907Z,20.9
2022-08-19T19:36:56.912Z,20.9
2022-08-19T19:38:56.924Z,21
2022-08-19T19:40:56.932Z,21
2022-08-19T19:42:56.936Z,21
2022-08-19T19:44:56.946Z,20.9
2022-08-19T19:46:56.952Z,21
2022-08-19T19:48:59.893Z,21
2022-08-19T19:50:56.973Z,21
2022-08-19T19:52:56.979Z,21
2022-08-19T19:54:57.010Z,21
2022-08-19T19:56:56.998Z,21
2022-08-19T19:58:57.004Z,21
2022-08-19T20:00:57.061Z,21
2022-08-19T20:02:57.014Z,21
2022-08-19T20:04:57.025Z,21
2022-08-19T20:06:57.033Z,21
2022-08-19T20:08:57.035Z,21
2022-08-19T20:10:57.040Z,21
2022-08-19T20:12:57.041Z,21
2022-08-19T20:14:57.048Z,21
2022-08-19T20:16:57.058Z,21
2022-08-19T20:18:57.075Z,21
2022-08-19T20:20:57.075Z,21
2022-08-19T20:22:57.088Z,21
2022-08-19T20:24:57.090Z,21
2022-08-19T20:26:57.098Z,21
2022-08-19T20:28:58.457Z,21
2022-08-19T20:30:57.118Z,21
2022-08-19T20:32:57.124Z,21
2022-08-19T20:34:57.127Z,21
2022-08-19T20:36:57.140Z,21
2022-08-19T20:38:57.142Z,21
2022-08-19T20:40:57.149Z,21
2022-08-19T20:42:57.154Z,21
2022-08-19T20:44:57.164Z,21
2022-08-19T20:47:00.619Z,21
2022-08-19T20:48:57.186Z,21
2022-08-19T20:50:57.185Z,21
2022-08-19T20:52:57.197Z,21
2022-08-19T20:54:57.211Z,21
2022-08-19T20:56:57.210Z,21
2022-08-19T20:58:59.926Z,21
2022-08-19T21:00:57.292Z,21
2022-08-19T21:02:57.225Z,21
2022-08-19T21:05:00.055Z,21
2022-08-19T21:06:57.239Z,21
2022-08-19T21:08:57.251Z,21
2022-08-19T21:10:57.254Z,21
2022-08-19T21:12:57.263Z,21
2022-08-19T21:14:57.270Z,21
2022-08-19T21:16:57.276Z,21
2022-08-19T21:18:57.291Z,21
2022-08-19T21:20:57.294Z,21
2022-08-19T21:22:57.307Z,21
2022-08-19T21:24:57.313Z,21
2022-08-19T21:26:57.315Z,21
2022-08-19T21:28:57.320Z,21
2022-08-19T21:30:57.329Z,21
2022-08-19T21:32:57.329Z,21
2022-08-19T21:34:57.342Z,21
2022-08-19T21:36:57.358Z,21
2022-08-19T21:38:57.357Z,21
2022-08-19T21:40:57.366Z,21
2022-08-19T21:42:57.378Z,21
2022-08-19T21:44:57.383Z,21
2022-08-19T21:46:57.397Z,21
2022-08-19T21:48:57.399Z,21
2022-08-19T21:50:57.412Z,21
2022-08-19T21:52:57.424Z,21
2022-08-19T21:54:57.416Z,21
2022-08-19T21:56:57.422Z,21
2022-08-19T21:58:57.430Z,21
2022-08-19T22:00:57.464Z,21
2022-08-19T22:02:57.446Z,21
2022-08-19T22:04:57.446Z,21
2022-08-19T22:06:57.458Z,21
2022-08-19T22:08:57.464Z,21
2022-08-19T22:10:57.475Z,21
2022-08-19T22:12:57.479Z,21
2022-08-19T22:14:57.490Z,21
2022-08-19T22:16:57.498Z,21
2022-08-19T22:18:57.508Z,21
2022-08-19T22:20:57.518Z,21
2022-08-19T22:22:57.525Z,21
2022-08-19T22:24:57.530Z,21
2022-08-19T22:26:57.537Z,21
2022-08-19T22:28:57.547Z,21
2022-08-19T22:30:57.554Z,21
2022-08-19T22:32:57.565Z,21
2022-08-19T22:34:57.564Z,21
2022-08-19T22:36:57.595Z,21
2022-08-19T22:38:57.583Z,21
2022-08-19T22:40:57.591Z,21
2022-08-19T22:42:57.598Z,21
2022-08-19T22:44:57.608Z,21
2022-08-19T22:46:57.606Z,21
2022-08-19T22:49:00.601Z,21
2022-08-19T22:50:57.621Z,20.9
2022-08-19T22:52:57.626Z,21
2022-08-19T22:54:57.634Z,21
2022-08-19T22:56:57.639Z,20.9
2022-08-19T22:58:57.652Z,21
2022-08-19T23:00:57.704Z,20.9
2022-08-19T23:02:57.654Z,20.9
2022-08-19T23:04:57.671Z,20.9
2022-08-19T23:06:57.670Z,21
2022-08-19T23:08:57.677Z,20.9
2022-08-19T23:10:57.684Z,20.9
2022-08-19T23:12:57.752Z,20.9
2022-08-19T23:14:57.697Z,20.9
2022-08-19T23:16:59.141Z,20.9
2022-08-19T23:18:57.711Z,20.9
2022-08-19T23:20:57.711Z,20.9
2022-08-19T23:22:57.720Z,20.9
2022-08-19T23:24:57.728Z,20.9
2022-08-19T23:26:57.735Z,20.9
2022-08-19T23:28:57.745Z,20.9
2022-08-19T23:30:57.751Z,20.9
2022-08-19T23:32:57.758Z,20.9
2022-08-19T23:34:57.760Z,20.9
2022-08-19T23:36:57.769Z,20.9
2022-08-19T23:38:57.768Z,20.9
2022-08-19T23:40:57.777Z,20.9
2022-08-19T23:42:57.780Z,20.9
2022-08-19T23:44:58.036Z,20.9
2022-08-19T23:46:57.796Z,20.9
2022-08-19T23:48:57.801Z,20.9
2022-08-19T23:50:57.810Z,20.9
2022-08-19T23:52:57.814Z,20.9
2022-08-19T23:54:57.826Z,20.9
2022-08-19T23:56:57.833Z,20.9
2022-08-19T23:58:57.839Z,20.9
